createdAt,value
2019-04-10T00:01:17.463Z,49.98
2019-04-10T00:03:46.356Z,51.08
2019-04-10T00:06:17.133Z,50.28
2019-04-10T00:08:46.320Z,49.00
2019-04-10T00:11:16.560Z,49.70
2019-04-10T00:13:45.562Z,49.80
2019-04-10T00:16:16.047Z,50.23
2019-04-10T00:18:44.903Z,50.35
2019-04-10T00:21:14.172Z,50.38
2019-04-10T00:23:43.738Z,49.25
2019-04-10T00:26:13.200Z,50.17
2019-04-10T00:28:43.539Z,48.92
2019-04-10T00:31:13.685Z,49.45
2019-04-10T00:33:43.121Z,49.30
2019-04-10T00:36:12.201Z,49.95
2019-04-10T00:38:41.887Z,49.70
2019-04-10T00:41:10.903Z,49.53
2019-04-10T00:43:40.574Z,49.30
2019-04-10T00:46:10.710Z,48.70
2019-04-10T00:48:39.833Z,50.05
2019-04-10T00:51:08.914Z,50.10
2019-04-10T00:53:37.780Z,47.78
2019-04-10T00:56:06.643Z,49.73
2019-04-10T00:58:35.510Z,49.58
2019-04-10T01:01:05.516Z,50.52
2019-04-10T01:03:44.066Z,48.87
2019-04-10T01:06:13.683Z,48.70
2019-04-10T01:08:42.800Z,47.88
2019-04-10T01:11:11.925Z,49.85
2019-04-10T01:13:41.765Z,49.13
2019-04-10T01:16:11.332Z,49.35
2019-04-10T01:18:41.484Z,48.98
2019-04-10T01:21:11.136Z,49.18
2019-04-10T01:23:41.444Z,49.60
2019-04-10T01:26:10.696Z,47.55
2019-04-10T01:28:40.542Z,49.48
2019-04-10T01:31:10.775Z,48.92
2019-04-10T01:33:40.823Z,49.10
2019-04-10T01:36:11.019Z,49.33
2019-04-10T01:38:43.845Z,47.20
2019-04-10T01:41:13.013Z,46.63
2019-04-10T01:43:41.891Z,46.80
2019-04-10T01:46:10.748Z,46.95
2019-04-10T01:48:39.803Z,46.80
2019-04-10T01:51:08.743Z,45.98
2019-04-10T01:53:37.737Z,45.38
2019-04-10T01:56:20.397Z,46.30
2019-04-10T01:58:37.866Z,47.25
2019-04-10T02:01:08.367Z,45.43
2019-04-10T02:03:38.211Z,44.40
2019-04-10T02:06:07.338Z,45.38
2019-04-10T02:08:36.449Z,45.52
2019-04-10T02:11:05.315Z,44.48
2019-04-10T02:13:34.171Z,45.85
2019-04-10T02:16:03.035Z,43.73
2019-04-10T02:18:31.891Z,44.05
2019-04-10T02:21:01.827Z,43.63
2019-04-10T02:23:30.707Z,45.50
2019-04-10T02:25:59.797Z,43.85
2019-04-10T02:28:29.146Z,44.25
2019-04-10T02:30:58.819Z,44.00
2019-04-10T02:33:29.359Z,44.15
2019-04-10T02:35:59.154Z,42.30
2019-04-10T02:38:47.842Z,41.35
2019-04-10T02:40:59.009Z,42.33
2019-04-10T02:43:29.277Z,42.73
2019-04-10T02:45:59.848Z,41.28
2019-04-10T02:48:29.661Z,41.20
2019-04-10T02:50:59.677Z,43.40
2019-04-10T02:53:29.617Z,41.90
2019-04-10T02:56:00.316Z,41.73
2019-04-10T02:58:29.927Z,40.95
2019-04-10T03:01:01.298Z,40.28
2019-04-10T03:03:30.692Z,41.60
2019-04-10T03:05:59.635Z,42.23
2019-04-10T03:08:49.401Z,40.10
2019-04-10T03:11:03.771Z,39.92
2019-04-10T03:13:31.026Z,40.50
2019-04-10T03:16:01.121Z,39.08
2019-04-10T03:18:30.544Z,39.73
2019-04-10T03:20:59.674Z,40.83
2019-04-10T03:23:29.454Z,39.40
2019-04-10T03:25:59.517Z,40.03
2019-04-10T03:28:29.185Z,40.75
2019-04-10T03:31:00.497Z,41.10
2019-04-10T03:33:32.842Z,40.00
2019-04-10T03:36:01.036Z,39.13
2019-04-10T03:38:29.979Z,39.35
2019-04-10T03:40:59.860Z,40.43
2019-04-10T03:43:29.875Z,40.25
2019-04-10T03:45:59.179Z,38.88
2019-04-10T03:48:29.196Z,39.80
2019-04-10T03:50:58.719Z,39.50
2019-04-10T03:53:27.640Z,38.92
2019-04-10T03:55:57.080Z,39.33
2019-04-10T03:58:27.233Z,38.92
2019-04-10T04:00:56.507Z,39.05
2019-04-10T04:03:26.708Z,38.42
2019-04-10T04:05:55.668Z,39.13
2019-04-10T04:08:25.600Z,39.13
2019-04-10T04:10:55.218Z,37.38
2019-04-10T04:13:24.199Z,39.18
2019-04-10T04:15:53.081Z,38.53
2019-04-10T04:18:21.943Z,38.40
2019-04-10T04:20:51.127Z,38.67
2019-04-10T04:23:19.971Z,36.77
2019-04-10T04:25:48.841Z,37.25
2019-04-10T04:28:18.826Z,38.23
2019-04-10T04:30:49.194Z,36.38
2019-04-10T04:33:19.022Z,36.83
2019-04-10T04:35:48.034Z,37.70
2019-04-10T04:38:17.816Z,36.35
2019-04-10T04:40:46.739Z,35.63
2019-04-10T04:43:16.609Z,38.23
2019-04-10T04:45:46.269Z,36.60
2019-04-10T04:48:15.183Z,34.53
2019-04-10T04:50:44.045Z,36.70
2019-04-10T04:53:12.907Z,33.18
2019-04-10T04:55:42.951Z,32.45
2019-04-10T04:58:11.845Z,31.68
2019-04-10T05:00:41.744Z,31.60
2019-04-10T05:03:10.691Z,30.82
2019-04-10T05:05:39.548Z,31.90
2019-04-10T05:08:08.531Z,31.30
2019-04-10T05:10:37.836Z,29.55
2019-04-10T05:13:06.695Z,30.77
2019-04-10T05:15:35.880Z,29.70
2019-04-10T05:18:04.741Z,30.82
2019-04-10T05:20:45.049Z,29.35
2019-04-10T05:23:04.192Z,30.52
2019-04-10T05:25:34.403Z,29.05
2019-04-10T05:28:03.690Z,29.32
2019-04-10T05:30:33.517Z,28.65
2019-04-10T05:33:02.523Z,28.07
2019-04-10T05:35:31.996Z,28.20
2019-04-10T05:38:01.025Z,28.15
2019-04-10T05:40:30.164Z,27.80
2019-04-10T05:42:59.608Z,27.20
2019-04-10T05:45:29.617Z,26.57
2019-04-10T05:47:59.025Z,27.30
2019-04-10T05:50:27.955Z,27.27
2019-04-10T05:52:57.870Z,28.17
2019-04-10T05:55:26.959Z,28.55
2019-04-10T05:57:56.039Z,30.77
2019-04-10T06:00:25.052Z,30.27
2019-04-10T06:02:54.317Z,31.10
2019-04-10T06:05:24.338Z,31.60
2019-04-10T06:07:53.854Z,30.48
2019-04-10T06:10:22.791Z,30.40
2019-04-10T06:12:52.909Z,29.77
2019-04-10T06:15:23.098Z,30.17
2019-04-10T06:17:52.176Z,29.98
2019-04-10T06:20:21.038Z,28.90
2019-04-10T06:22:50.696Z,29.63
2019-04-10T06:25:21.603Z,29.70
2019-04-10T06:27:50.567Z,29.27
2019-04-10T06:30:19.785Z,28.10
2019-04-10T06:32:48.916Z,29.25
2019-04-10T06:35:17.780Z,28.75
2019-04-10T06:37:46.897Z,28.15
2019-04-10T06:40:20.649Z,27.30
2019-04-10T06:42:51.564Z,28.02
2019-04-10T06:45:17.778Z,26.82
2019-04-10T06:47:48.694Z,28.52
2019-04-10T06:50:17.585Z,26.60
2019-04-10T06:52:47.152Z,27.10
2019-04-10T06:55:16.083Z,28.55
2019-04-10T06:57:50.865Z,27.45
2019-04-10T07:00:18.456Z,27.50
2019-04-10T07:02:48.003Z,26.50
2019-04-10T07:05:16.880Z,26.15
2019-04-10T07:07:52.040Z,28.05
2019-04-10T07:10:25.667Z,26.02
2019-04-10T07:12:47.781Z,25.55
2019-04-10T07:15:20.093Z,26.42
2019-04-10T07:17:47.797Z,27.30
2019-04-10T07:20:19.155Z,26.30
2019-04-10T07:22:49.350Z,25.65
2019-04-10T07:25:17.927Z,26.97
2019-04-10T07:27:47.834Z,27.32
2019-04-10T07:30:17.414Z,27.90
2019-04-10T07:32:49.020Z,25.62
2019-04-10T07:35:19.814Z,26.20
2019-04-10T07:37:52.686Z,26.07
2019-04-10T07:40:18.657Z,27.48
2019-04-10T07:42:48.558Z,25.10
2019-04-10T07:45:17.843Z,27.62
2019-04-10T07:47:46.711Z,27.48
2019-04-10T07:50:16.501Z,27.02
2019-04-10T07:52:45.886Z,27.35
2019-04-10T07:55:15.029Z,27.40
2019-04-10T07:57:47.158Z,27.17
2019-04-10T08:00:16.471Z,27.13
2019-04-10T08:02:45.411Z,28.15
2019-04-10T08:05:14.452Z,28.10
2019-04-10T08:07:43.376Z,27.17
2019-04-10T08:10:12.312Z,28.47
2019-04-10T08:12:47.600Z,27.73
2019-04-10T08:15:11.732Z,27.85
2019-04-10T08:17:41.019Z,27.35
2019-04-10T08:20:10.392Z,27.35
2019-04-10T08:22:39.463Z,26.97
2019-04-10T08:25:08.975Z,26.20
2019-04-10T08:27:38.488Z,27.52
2019-04-10T08:30:10.614Z,27.32
2019-04-10T08:32:50.889Z,27.80
2019-04-10T08:35:09.162Z,27.80
2019-04-10T08:37:39.062Z,27.98
2019-04-10T08:40:09.567Z,26.65
2019-04-10T08:42:40.196Z,26.70
2019-04-10T08:45:09.791Z,26.40
2019-04-10T08:47:39.676Z,26.20
2019-04-10T08:50:09.768Z,24.30
2019-04-10T08:52:39.109Z,25.00
2019-04-10T08:55:08.230Z,25.40
2019-04-10T08:57:38.165Z,24.12
2019-04-10T09:00:08.120Z,24.63
2019-04-10T09:02:38.134Z,23.90
2019-04-10T09:05:07.486Z,22.17
2019-04-10T09:07:36.571Z,20.05
2019-04-10T09:10:06.005Z,21.87
2019-04-10T09:12:34.843Z,21.68
2019-04-10T09:15:05.463Z,20.12
2019-04-10T09:17:35.472Z,22.17
2019-04-10T09:20:06.572Z,21.85
2019-04-10T09:22:49.838Z,20.32
2019-04-10T09:25:06.933Z,19.10
2019-04-10T09:27:36.211Z,20.43
2019-04-10T09:30:07.071Z,18.00
2019-04-10T09:32:36.891Z,19.07
2019-04-10T09:35:08.647Z,20.10
2019-04-10T09:37:37.983Z,18.42
2019-04-10T09:40:07.994Z,19.25
2019-04-10T09:42:37.043Z,18.32
2019-04-10T09:45:06.074Z,17.80
2019-04-10T09:47:34.941Z,17.17
2019-04-10T09:50:05.686Z,17.62
2019-04-10T09:52:35.616Z,17.07
2019-04-10T09:55:05.655Z,17.05
2019-04-10T09:57:34.749Z,17.67
2019-04-10T10:00:05.303Z,17.37
2019-04-10T10:02:35.943Z,18.10
2019-04-10T10:05:06.377Z,18.05
2019-04-10T10:07:35.239Z,19.35
2019-04-10T10:10:06.851Z,18.85
2019-04-10T10:12:36.445Z,19.17
2019-04-10T10:15:07.249Z,19.48
2019-04-10T10:17:37.063Z,18.75
2019-04-10T10:20:07.930Z,17.87
2019-04-10T10:22:37.128Z,17.65
2019-04-10T10:25:06.956Z,18.32
2019-04-10T10:27:36.037Z,15.85
2019-04-10T10:30:06.912Z,16.55
2019-04-10T10:32:37.101Z,15.58
2019-04-10T10:35:07.158Z,15.35
2019-04-10T10:37:38.711Z,15.30
2019-04-10T10:40:10.058Z,15.10
2019-04-10T10:42:40.977Z,14.40
2019-04-10T10:45:10.473Z,14.58
2019-04-10T10:47:40.370Z,14.65
2019-04-10T10:50:09.844Z,15.15
2019-04-10T10:52:39.794Z,14.70
2019-04-10T10:55:09.896Z,14.60
2019-04-10T10:57:39.643Z,14.05
2019-04-10T11:00:12.827Z,14.05
2019-04-10T11:02:40.087Z,13.80
2019-04-10T11:05:09.331Z,13.43
2019-04-10T11:07:38.842Z,14.13
2019-04-10T11:10:08.532Z,14.45
2019-04-10T11:12:38.478Z,14.73
2019-04-10T11:15:07.977Z,13.70
2019-04-10T11:17:38.443Z,14.53
2019-04-10T11:20:10.075Z,14.73
2019-04-10T11:22:40.020Z,14.05
2019-04-10T11:25:11.962Z,15.50
2019-04-10T11:27:41.988Z,15.18
2019-04-10T11:30:12.524Z,14.28
2019-04-10T11:32:42.230Z,14.23
2019-04-10T11:35:12.963Z,15.08
2019-04-10T11:37:46.865Z,14.33
2019-04-10T11:40:16.307Z,13.55
2019-04-10T11:42:44.752Z,13.32
2019-04-10T11:47:45.019Z,13.30
2019-04-10T11:52:52.199Z,12.20
2019-04-10T11:55:19.957Z,12.78
2019-04-10T11:57:49.018Z,12.98
2019-04-10T12:00:20.551Z,13.75
2019-04-10T12:05:22.025Z,14.40
2019-04-10T12:08:18.012Z,14.25
2019-04-10T12:12:54.357Z,13.68
2019-04-10T12:15:24.051Z,13.20
2019-04-10T12:17:54.027Z,13.55
2019-04-10T12:20:23.019Z,13.35
2019-04-10T12:22:52.433Z,13.28
2019-04-10T12:25:21.416Z,14.15
2019-04-10T12:27:51.504Z,14.93
2019-04-10T12:30:21.662Z,14.68
2019-04-10T12:32:50.707Z,14.53
2019-04-10T12:35:20.426Z,14.58
2019-04-10T12:37:57.770Z,15.48
2019-04-10T12:40:21.511Z,14.75
2019-04-10T12:42:50.433Z,14.20
2019-04-10T12:45:20.056Z,15.43
2019-04-10T12:47:50.182Z,14.33
2019-04-10T12:50:20.359Z,14.73
2019-04-10T12:52:49.444Z,15.30
2019-04-10T12:55:18.607Z,14.68
2019-04-10T12:57:47.656Z,14.73
2019-04-10T13:00:20.028Z,14.18
2019-04-10T13:02:50.350Z,14.75
2019-04-10T13:05:19.443Z,14.55
2019-04-10T13:07:48.298Z,15.83
2019-04-10T13:10:18.258Z,15.30
2019-04-10T13:12:47.503Z,14.40
2019-04-10T13:15:16.436Z,15.38
2019-04-10T13:17:45.384Z,13.75
2019-04-10T13:20:15.657Z,14.40
2019-04-10T13:22:46.452Z,13.70
2019-04-10T13:25:16.468Z,15.55
2019-04-10T13:27:45.564Z,14.68
2019-04-10T13:30:14.756Z,15.50
2019-04-10T13:32:44.451Z,14.78
2019-04-10T13:35:13.767Z,14.58
2019-04-10T13:37:43.456Z,14.30
2019-04-10T13:40:13.137Z,15.63
2019-04-10T13:42:42.266Z,14.55
2019-04-10T13:45:11.278Z,14.68
2019-04-10T13:47:40.877Z,14.38
2019-04-10T13:50:10.654Z,13.58
2019-04-10T13:52:41.258Z,13.38
2019-04-10T13:55:11.650Z,13.25
2019-04-10T13:57:40.572Z,12.73
2019-04-10T14:00:28.128Z,13.95
2019-04-10T14:02:56.995Z,13.13
2019-04-10T14:05:27.315Z,14.65
2019-04-10T14:07:57.644Z,15.32
2019-04-10T14:10:27.951Z,15.10
2019-04-10T14:12:57.961Z,15.45
2019-04-10T14:15:30.145Z,14.60
2019-04-10T14:17:58.229Z,14.83
2019-04-10T14:20:27.164Z,14.87
2019-04-10T14:23:00.668Z,15.43
2019-04-10T14:25:49.725Z,14.50
2019-04-10T14:28:21.874Z,15.28
2019-04-10T14:30:51.653Z,14.70
2019-04-10T14:33:21.311Z,15.35
2019-04-10T14:35:51.493Z,15.63
2019-04-10T14:38:21.142Z,15.93
2019-04-10T14:40:50.171Z,15.60
2019-04-10T14:43:19.195Z,14.93
2019-04-10T14:45:48.139Z,15.23
2019-04-10T14:48:18.286Z,14.43
2019-04-10T14:50:47.119Z,14.87
2019-04-10T14:53:17.134Z,14.43
2019-04-10T14:55:46.289Z,14.75
2019-04-10T14:58:26.346Z,14.83
2019-04-10T15:00:47.422Z,13.98
2019-04-10T15:03:18.828Z,15.00
2019-04-10T15:05:51.432Z,14.50
2019-04-10T15:08:19.605Z,14.43
2019-04-10T15:10:48.678Z,13.80
2019-04-10T15:13:21.094Z,13.90
2019-04-10T15:15:48.569Z,14.33
2019-04-10T15:18:18.571Z,14.83
2019-04-10T15:20:47.452Z,14.73
2019-04-10T15:23:16.304Z,15.18
2019-04-10T15:25:45.179Z,14.33
2019-04-10T15:28:14.065Z,14.87
2019-04-10T15:30:43.051Z,14.18
2019-04-10T15:33:12.159Z,14.35
2019-04-10T15:35:41.816Z,14.65
2019-04-10T15:38:11.780Z,15.05
2019-04-10T15:40:42.007Z,15.43
2019-04-10T15:43:11.100Z,16.62
2019-04-10T15:45:40.051Z,15.68
2019-04-10T15:48:10.445Z,16.57
2019-04-10T15:50:39.542Z,16.10
2019-04-10T15:53:09.649Z,15.78
2019-04-10T15:55:38.720Z,15.85
2019-04-10T15:58:08.704Z,16.15
2019-04-10T16:00:38.959Z,16.90
2019-04-10T16:03:07.825Z,16.15
2019-04-10T16:05:37.631Z,15.58
2019-04-10T16:08:06.595Z,16.25
2019-04-10T16:10:53.408Z,16.12
2019-04-10T16:13:36.749Z,15.80
2019-04-10T16:16:25.509Z,16.07
2019-04-10T16:18:56.986Z,16.97
2019-04-10T16:21:26.932Z,15.80
2019-04-10T16:23:58.392Z,15.30
2019-04-10T16:26:27.771Z,15.72
2019-04-10T16:28:57.611Z,15.55
2019-04-10T16:31:27.671Z,15.23
2019-04-10T16:33:56.754Z,15.32
2019-04-10T16:36:26.549Z,15.35
2019-04-10T16:38:57.460Z,15.20
2019-04-10T16:41:28.361Z,16.82
2019-04-10T16:43:57.126Z,15.85
2019-04-10T16:46:26.051Z,15.88
2019-04-10T16:48:55.989Z,16.25
2019-04-10T16:51:25.923Z,16.40
2019-04-10T16:53:55.899Z,16.82
2019-04-10T16:56:25.427Z,15.98
2019-04-10T16:58:54.379Z,16.73
2019-04-10T17:01:23.247Z,17.30
2019-04-10T17:03:52.323Z,16.32
2019-04-10T17:06:21.912Z,16.27
2019-04-10T17:08:57.080Z,16.17
2019-04-10T17:11:27.108Z,16.35
2019-04-10T17:13:57.109Z,16.05
2019-04-10T17:16:29.427Z,16.48
2019-04-10T17:18:59.278Z,16.45
2019-04-10T17:21:30.794Z,16.02
2019-04-10T17:23:59.338Z,16.23
2019-04-10T17:26:28.683Z,15.03
2019-04-10T17:28:58.859Z,15.45
2019-04-10T17:31:28.661Z,14.55
2019-04-10T17:33:58.684Z,14.50
2019-04-10T17:36:29.332Z,14.43
2019-04-10T17:38:58.766Z,13.95
2019-04-10T17:41:28.039Z,13.98
2019-04-10T17:44:02.867Z,14.47
2019-04-10T17:46:33.231Z,14.95
2019-04-10T17:49:03.473Z,14.98
2019-04-10T17:51:32.494Z,15.15
2019-04-10T17:54:02.126Z,14.68
2019-04-10T17:56:32.304Z,14.78
2019-04-10T17:59:02.336Z,15.10
2019-04-10T18:01:32.805Z,15.38
2019-04-10T18:04:03.602Z,14.87
2019-04-10T18:06:33.285Z,14.98
2019-04-10T18:09:05.865Z,15.05
2019-04-10T18:11:34.950Z,15.08
2019-04-10T18:14:04.311Z,14.70
2019-04-10T18:16:33.876Z,14.95
2019-04-10T18:19:04.293Z,15.20
2019-04-10T18:21:33.423Z,14.95
2019-04-10T18:24:02.287Z,14.87
2019-04-10T18:26:31.989Z,15.93
2019-04-10T18:29:02.322Z,14.60
2019-04-10T18:31:32.555Z,14.35
2019-04-10T18:34:02.809Z,14.28
2019-04-10T18:36:32.172Z,14.98
2019-04-10T18:39:01.819Z,14.78
2019-04-10T18:41:32.391Z,14.83
2019-04-10T18:44:01.502Z,15.70
2019-04-10T18:46:31.245Z,14.63
2019-04-10T18:49:00.230Z,15.63
2019-04-10T18:51:29.886Z,15.50
2019-04-10T18:53:59.686Z,14.87
2019-04-10T18:56:29.229Z,15.20
2019-04-10T18:59:16.372Z,14.80
2019-04-10T19:01:47.387Z,14.80
2019-04-10T19:04:33.285Z,14.87
2019-04-10T19:07:02.409Z,15.03
2019-04-10T19:09:32.923Z,14.33
2019-04-10T19:12:02.461Z,15.88
2019-04-10T19:14:34.940Z,15.03
2019-04-10T19:17:02.617Z,15.35
2019-04-10T19:19:32.485Z,15.08
2019-04-10T19:22:02.138Z,15.38
2019-04-10T19:24:32.679Z,14.68
2019-04-10T19:27:02.520Z,14.30
2019-04-10T19:29:31.897Z,14.83
2019-04-10T19:32:02.201Z,14.98
2019-04-10T19:34:32.367Z,15.00
2019-04-10T19:37:01.224Z,14.95
2019-04-10T19:39:30.106Z,13.90
2019-04-10T19:41:59.180Z,13.62
2019-04-10T19:44:28.952Z,14.18
2019-04-10T19:46:58.004Z,14.68
2019-04-10T19:49:28.077Z,13.43
2019-04-10T19:51:58.124Z,13.68
2019-04-10T19:54:28.206Z,13.62
2019-04-10T19:56:57.303Z,13.83
2019-04-10T19:59:27.121Z,13.43
2019-04-10T20:01:56.249Z,13.08
2019-04-10T20:04:26.206Z,13.75
2019-04-10T20:06:56.367Z,14.53
2019-04-10T20:09:25.407Z,14.00
2019-04-10T20:11:56.950Z,13.25
2019-04-10T20:14:24.839Z,13.83
2019-04-10T20:16:53.741Z,14.05
2019-04-10T20:19:22.940Z,13.00
2019-04-10T20:21:52.453Z,14.60
2019-04-10T20:24:22.818Z,13.75
2019-04-10T20:26:51.840Z,13.48
2019-04-10T20:29:21.231Z,13.55
2019-04-10T20:31:51.448Z,13.70
2019-04-10T20:34:21.278Z,14.25
2019-04-10T20:36:50.185Z,14.58
2019-04-10T20:39:19.036Z,14.45
2019-04-10T20:41:52.359Z,13.58
2019-04-10T20:44:20.687Z,13.68
2019-04-10T20:46:50.683Z,15.03
2019-04-10T20:49:20.655Z,13.98
2019-04-10T20:51:50.584Z,15.60
2019-04-10T20:54:20.379Z,14.60
2019-04-10T20:56:49.279Z,14.55
2019-04-10T20:59:19.598Z,14.58
2019-04-10T21:01:49.783Z,14.75
2019-04-10T21:04:19.889Z,14.70
2019-04-10T21:06:49.889Z,15.18
2019-04-10T21:09:19.222Z,15.08
2019-04-10T21:12:00.898Z,14.80
2019-04-10T21:14:19.190Z,14.53
2019-04-10T21:16:48.233Z,15.08
2019-04-10T21:19:18.444Z,16.75
2019-04-10T21:21:47.362Z,16.00
2019-04-10T21:24:16.758Z,15.60
2019-04-10T21:26:46.454Z,15.50
2019-04-10T21:29:20.993Z,16.02
2019-04-10T21:31:52.517Z,16.00
2019-04-10T21:34:35.542Z,16.17
2019-04-10T21:37:04.539Z,16.62
2019-04-10T21:39:33.952Z,16.15
2019-04-10T21:42:12.012Z,16.25
2019-04-10T21:44:33.518Z,16.45
2019-04-10T21:47:03.364Z,16.80
2019-04-10T21:49:32.413Z,16.67
2019-04-10T21:52:02.111Z,17.90
2019-04-10T21:54:31.390Z,18.23
2019-04-10T21:57:00.346Z,16.48
2019-04-10T21:59:29.203Z,18.07
2019-04-10T22:01:59.210Z,17.70
2019-04-10T22:04:28.315Z,17.67
2019-04-10T22:07:04.900Z,17.30
2019-04-10T22:09:36.935Z,17.87
2019-04-10T22:12:21.996Z,18.12
2019-04-10T22:14:41.814Z,17.75
2019-04-10T22:17:11.084Z,18.60
2019-04-10T22:19:40.986Z,18.30
2019-04-10T22:22:11.207Z,18.42
2019-04-10T22:24:40.558Z,18.20
2019-04-10T22:27:09.515Z,19.05
2019-04-10T22:29:38.942Z,18.80
2019-04-10T22:32:08.664Z,17.57
2019-04-10T22:34:38.452Z,18.07
2019-04-10T22:37:07.431Z,18.32
2019-04-10T22:39:36.279Z,17.95
2019-04-10T22:42:05.515Z,17.37
2019-04-10T22:44:40.421Z,18.12
2019-04-10T22:47:05.130Z,18.60
2019-04-10T22:49:34.966Z,18.98
2019-04-10T22:52:04.694Z,17.82
2019-04-10T22:54:34.598Z,18.35
2019-04-10T22:57:04.727Z,18.90
2019-04-10T22:59:34.577Z,18.07
2019-04-10T23:02:10.522Z,18.15
2019-04-10T23:04:34.921Z,18.60
2019-04-10T23:07:04.015Z,18.85
2019-04-10T23:09:33.175Z,19.15
2019-04-10T23:12:02.360Z,19.60
2019-04-10T23:14:31.260Z,18.85
2019-04-10T23:17:00.255Z,18.57
2019-04-10T23:19:30.026Z,19.27
2019-04-10T23:21:59.035Z,18.80
2019-04-10T23:24:27.897Z,18.82
2019-04-10T23:26:57.557Z,18.12
2019-04-10T23:29:26.627Z,18.25
2019-04-10T23:31:56.195Z,19.50
2019-04-10T23:34:25.174Z,18.92
2019-04-10T23:36:54.142Z,19.02
2019-04-10T23:39:23.979Z,18.12
2019-04-10T23:41:53.023Z,18.50
2019-04-10T23:44:21.888Z,18.62
2019-04-10T23:46:51.698Z,19.00
2019-04-10T23:49:21.516Z,18.80
2019-04-10T23:51:51.552Z,18.40
2019-04-10T23:54:21.499Z,18.57
2019-04-10T23:56:50.793Z,17.32
2019-04-10T23:59:20.531Z,18.32
